sensor_id;sensor_type;location;lat;lon;timestamp;P1;durP1;ratioP1;P2;durP2;ratioP2
12585;SDS011;6358;50.760;0.282;2022-07-05T00:02:22;1.48;;;1.02;;
12585;SDS011;6358;50.760;0.282;2022-07-05T00:04:48;1.23;;;1.13;;
12585;SDS011;6358;50.760;0.282;2022-07-05T00:07:15;2.83;;;1.10;;
12585;SDS011;6358;50.760;0.282;2022-07-05T00:12:11;1.42;;;1.33;;
12585;SDS011;6358;50.760;0.282;2022-07-05T00:14:38;1.27;;;1.10;;
12585;SDS011;6358;50.760;0.282;2022-07-05T00:17:04;1.20;;;1.10;;
12585;SDS011;6358;50.760;0.282;2022-07-05T00:19:31;1.25;;;1.10;;
12585;SDS011;6358;50.760;0.282;2022-07-05T00:21:57;1.67;;;1.20;;
12585;SDS011;6358;50.760;0.282;2022-07-05T00:24:23;1.00;;;1.00;;
12585;SDS011;6358;50.760;0.282;2022-07-05T00:26:50;1.10;;;1.10;;
12585;SDS011;6358;50.760;0.282;2022-07-05T00:29:16;1.40;;;1.30;;
12585;SDS011;6358;50.760;0.282;2022-07-05T00:31:42;1.30;;;1.20;;
12585;SDS011;6358;50.760;0.282;2022-07-05T00:34:08;1.00;;;1.00;;
12585;SDS011;6358;50.760;0.282;2022-07-05T00:36:34;1.33;;;1.20;;
12585;SDS011;6358;50.760;0.282;2022-07-05T00:39:00;1.27;;;1.25;;
12585;SDS011;6358;50.760;0.282;2022-07-05T00:41:27;1.20;;;1.15;;
12585;SDS011;6358;50.760;0.282;2022-07-05T00:43:57;1.25;;;1.15;;
12585;SDS011;6358;50.760;0.282;2022-07-05T00:46:24;1.30;;;1.23;;
12585;SDS011;6358;50.760;0.282;2022-07-05T00:48:50;1.25;;;1.17;;
12585;SDS011;6358;50.760;0.282;2022-07-05T00:51:17;1.02;;;1.02;;
12585;SDS011;6358;50.760;0.282;2022-07-05T00:53:43;1.33;;;1.20;;
12585;SDS011;6358;50.760;0.282;2022-07-05T00:56:12;2.05;;;1.50;;
12585;SDS011;6358;50.760;0.282;2022-07-05T00:58:39;1.30;;;1.20;;
12585;SDS011;6358;50.760;0.282;2022-07-05T01:01:06;1.52;;;1.30;;
12585;SDS011;6358;50.760;0.282;2022-07-05T01:03:33;1.45;;;1.35;;
12585;SDS011;6358;50.760;0.282;2022-07-05T01:06:03;1.52;;;1.30;;
12585;SDS011;6358;50.760;0.282;2022-07-05T01:08:30;1.30;;;1.30;;
12585;SDS011;6358;50.760;0.282;2022-07-05T01:11:01;1.40;;;1.30;;
12585;SDS011;6358;50.760;0.282;2022-07-05T01:13:28;1.55;;;1.45;;
12585;SDS011;6358;50.760;0.282;2022-07-05T01:15:54;1.40;;;1.30;;
12585;SDS011;6358;50.760;0.282;2022-07-05T01:18:21;1.50;;;1.40;;
12585;SDS011;6358;50.760;0.282;2022-07-05T01:20:47;1.40;;;1.30;;
12585;SDS011;6358;50.760;0.282;2022-07-05T01:23:14;2.00;;;1.50;;
12585;SDS011;6358;50.760;0.282;2022-07-05T01:25:40;1.50;;;1.40;;
12585;SDS011;6358;50.760;0.282;2022-07-05T01:28:06;1.70;;;1.60;;
12585;SDS011;6358;50.760;0.282;2022-07-05T01:30:34;1.85;;;1.50;;
12585;SDS011;6358;50.760;0.282;2022-07-05T01:33:00;1.60;;;1.50;;
12585;SDS011;6358;50.760;0.282;2022-07-05T01:35:27;1.70;;;1.60;;
12585;SDS011;6358;50.760;0.282;2022-07-05T01:37:53;2.60;;;1.50;;
12585;SDS011;6358;50.760;0.282;2022-07-05T01:40:19;2.35;;;1.50;;
12585;SDS011;6358;50.760;0.282;2022-07-05T01:42:46;1.70;;;1.60;;
12585;SDS011;6358;50.760;0.282;2022-07-05T01:45:12;1.92;;;1.70;;
12585;SDS011;6358;50.760;0.282;2022-07-05T01:47:58;2.13;;;1.83;;
12585;SDS011;6358;50.760;0.282;2022-07-05T01:50:25;1.80;;;1.70;;
12585;SDS011;6358;50.760;0.282;2022-07-05T01:52:51;1.90;;;1.63;;
12585;SDS011;6358;50.760;0.282;2022-07-05T01:55:17;1.90;;;1.75;;
12585;SDS011;6358;50.760;0.282;2022-07-05T01:57:43;1.92;;;1.73;;
12585;SDS011;6358;50.760;0.282;2022-07-05T02:00:10;2.90;;;2.00;;
12585;SDS011;6358;50.760;0.282;2022-07-05T02:02:39;2.35;;;1.60;;
12585;SDS011;6358;50.760;0.282;2022-07-05T02:05:06;2.15;;;1.70;;
12585;SDS011;6358;50.760;0.282;2022-07-05T02:07:32;1.45;;;1.35;;
12585;SDS011;6358;50.760;0.282;2022-07-05T02:09:58;2.28;;;1.73;;
12585;SDS011;6358;50.760;0.282;2022-07-05T02:12:24;1.73;;;1.63;;
12585;SDS011;6358;50.760;0.282;2022-07-05T02:14:51;1.98;;;1.75;;
12585;SDS011;6358;50.760;0.282;2022-07-05T02:17:17;1.73;;;1.63;;
12585;SDS011;6358;50.760;0.282;2022-07-05T02:19:43;1.80;;;1.60;;
12585;SDS011;6358;50.760;0.282;2022-07-05T02:22:09;1.60;;;1.50;;
12585;SDS011;6358;50.760;0.282;2022-07-05T02:24:36;1.70;;;1.60;;
12585;SDS011;6358;50.760;0.282;2022-07-05T02:27:02;1.70;;;1.50;;
12585;SDS011;6358;50.760;0.282;2022-07-05T02:29:28;1.95;;;1.60;;
12585;SDS011;6358;50.760;0.282;2022-07-05T02:31:54;1.80;;;1.70;;
12585;SDS011;6358;50.760;0.282;2022-07-05T02:34:20;1.98;;;1.80;;
12585;SDS011;6358;50.760;0.282;2022-07-05T02:36:46;1.77;;;1.67;;
12585;SDS011;6358;50.760;0.282;2022-07-05T02:39:12;2.13;;;1.70;;
12585;SDS011;6358;50.760;0.282;2022-07-05T02:41:38;5.10;;;1.50;;
12585;SDS011;6358;50.760;0.282;2022-07-05T02:44:05;1.85;;;1.75;;
12585;SDS011;6358;50.760;0.282;2022-07-05T02:46:31;1.80;;;1.63;;
12585;SDS011;6358;50.760;0.282;2022-07-05T02:48:57;2.13;;;1.98;;
12585;SDS011;6358;50.760;0.282;2022-07-05T02:51:23;2.53;;;1.50;;
12585;SDS011;6358;50.760;0.282;2022-07-05T02:53:49;2.05;;;1.70;;
12585;SDS011;6358;50.760;0.282;2022-07-05T02:56:15;1.65;;;1.55;;
12585;SDS011;6358;50.760;0.282;2022-07-05T02:58:41;2.40;;;1.70;;
12585;SDS011;6358;50.760;0.282;2022-07-05T03:01:07;1.63;;;1.52;;
12585;SDS011;6358;50.760;0.282;2022-07-05T03:03:33;1.80;;;1.70;;
12585;SDS011;6358;50.760;0.282;2022-07-05T03:05:59;1.60;;;1.50;;
12585;SDS011;6358;50.760;0.282;2022-07-05T03:08:26;2.22;;;1.60;;
12585;SDS011;6358;50.760;0.282;2022-07-05T03:10:52;1.88;;;1.75;;
12585;SDS011;6358;50.760;0.282;2022-07-05T03:13:18;1.55;;;1.45;;
12585;SDS011;6358;50.760;0.282;2022-07-05T03:15:44;1.73;;;1.63;;
12585;SDS011;6358;50.760;0.282;2022-07-05T03:18:10;1.73;;;1.60;;
12585;SDS011;6358;50.760;0.282;2022-07-05T03:20:36;1.70;;;1.60;;
12585;SDS011;6358;50.760;0.282;2022-07-05T03:25:44;1.55;;;1.45;;
12585;SDS011;6358;50.760;0.282;2022-07-05T03:28:11;1.60;;;1.50;;
12585;SDS011;6358;50.760;0.282;2022-07-05T03:30:37;1.80;;;1.70;;
12585;SDS011;6358;50.760;0.282;2022-07-05T03:33:03;1.80;;;1.67;;
12585;SDS011;6358;50.760;0.282;2022-07-05T03:35:29;1.60;;;1.40;;
12585;SDS011;6358;50.760;0.282;2022-07-05T03:37:55;1.75;;;1.65;;
12585;SDS011;6358;50.760;0.282;2022-07-05T03:40:21;1.63;;;1.50;;
12585;SDS011;6358;50.760;0.282;2022-07-05T03:42:47;1.73;;;1.63;;
12585;SDS011;6358;50.760;0.282;2022-07-05T03:45:13;1.67;;;1.58;;
12585;SDS011;6358;50.760;0.282;2022-07-05T03:47:39;1.70;;;1.60;;
12585;SDS011;6358;50.760;0.282;2022-07-05T03:50:06;1.63;;;1.52;;
12585;SDS011;6358;50.760;0.282;2022-07-05T03:52:32;1.70;;;1.60;;
12585;SDS011;6358;50.760;0.282;2022-07-05T03:54:58;1.77;;;1.67;;
12585;SDS011;6358;50.760;0.282;2022-07-05T03:57:24;1.50;;;1.40;;
12585;SDS011;6358;50.760;0.282;2022-07-05T03:59:50;1.65;;;1.50;;
12585;SDS011;6358;50.760;0.282;2022-07-05T04:02:16;1.80;;;1.70;;
12585;SDS011;6358;50.760;0.282;2022-07-05T04:04:42;1.77;;;1.45;;
12585;SDS011;6358;50.760;0.282;2022-07-05T04:07:09;1.60;;;1.50;;
12585;SDS011;6358;50.760;0.282;2022-07-05T04:09:35;2.08;;;1.40;;
12585;SDS011;6358;50.760;0.282;2022-07-05T04:12:01;1.60;;;1.50;;
12585;SDS011;6358;50.760;0.282;2022-07-05T04:14:27;1.60;;;1.50;;
12585;SDS011;6358;50.760;0.282;2022-07-05T04:16:53;1.60;;;1.50;;
12585;SDS011;6358;50.760;0.282;2022-07-05T04:19:19;1.83;;;1.50;;
12585;SDS011;6358;50.760;0.282;2022-07-05T04:21:46;1.60;;;1.50;;
12585;SDS011;6358;50.760;0.282;2022-07-05T04:24:12;1.83;;;1.60;;
12585;SDS011;6358;50.760;0.282;2022-07-05T04:26:38;1.65;;;1.55;;
12585;SDS011;6358;50.760;0.282;2022-07-05T04:29:04;1.60;;;1.50;;
12585;SDS011;6358;50.760;0.282;2022-07-05T04:31:30;1.55;;;1.45;;
12585;SDS011;6358;50.760;0.282;2022-07-05T04:33:56;1.70;;;1.60;;
12585;SDS011;6358;50.760;0.282;2022-07-05T04:36:22;2.08;;;1.42;;
12585;SDS011;6358;50.760;0.282;2022-07-05T04:38:48;1.50;;;1.40;;
12585;SDS011;6358;50.760;0.282;2022-07-05T04:41:15;2.28;;;1.60;;
12585;SDS011;6358;50.760;0.282;2022-07-05T04:43:41;1.42;;;1.33;;
12585;SDS011;6358;50.760;0.282;2022-07-05T04:46:07;1.73;;;1.60;;
12585;SDS011;6358;50.760;0.282;2022-07-05T04:48:33;2.05;;;1.65;;
12585;SDS011;6358;50.760;0.282;2022-07-05T04:50:59;1.85;;;1.50;;
12585;SDS011;6358;50.760;0.282;2022-07-05T04:53:25;1.40;;;1.30;;
12585;SDS011;6358;50.760;0.282;2022-07-05T04:55:51;1.58;;;1.48;;
12585;SDS011;6358;50.760;0.282;2022-07-05T04:58:17;1.95;;;1.52;;
12585;SDS011;6358;50.760;0.282;2022-07-05T05:00:44;1.70;;;1.60;;
12585;SDS011;6358;50.760;0.282;2022-07-05T05:03:10;1.52;;;1.30;;
12585;SDS011;6358;50.760;0.282;2022-07-05T05:05:36;1.67;;;1.50;;
12585;SDS011;6358;50.760;0.282;2022-07-05T05:08:02;1.27;;;1.25;;
12585;SDS011;6358;50.760;0.282;2022-07-05T05:10:28;1.30;;;1.23;;
12585;SDS011;6358;50.760;0.282;2022-07-05T05:12:54;1.88;;;1.30;;
12585;SDS011;6358;50.760;0.282;2022-07-05T05:15:20;1.67;;;1.33;;
12585;SDS011;6358;50.760;0.282;2022-07-05T05:17:46;1.35;;;1.27;;
12585;SDS011;6358;50.760;0.282;2022-07-05T05:20:13;1.65;;;1.30;;
12585;SDS011;6358;50.760;0.282;2022-07-05T05:22:40;1.42;;;1.30;;
12585;SDS011;6358;50.760;0.282;2022-07-05T05:25:06;1.60;;;1.33;;
12585;SDS011;6358;50.760;0.282;2022-07-05T05:27:33;1.52;;;1.27;;
12585;SDS011;6358;50.760;0.282;2022-07-05T05:29:59;1.38;;;1.27;;
12585;SDS011;6358;50.760;0.282;2022-07-05T05:32:25;1.60;;;1.40;;
12585;SDS011;6358;50.760;0.282;2022-07-05T05:34:51;1.60;;;1.30;;
12585;SDS011;6358;50.760;0.282;2022-07-05T05:37:17;1.60;;;1.50;;
12585;SDS011;6358;50.760;0.282;2022-07-05T05:39:43;1.30;;;1.20;;
12585;SDS011;6358;50.760;0.282;2022-07-05T05:42:10;1.40;;;1.30;;
12585;SDS011;6358;50.760;0.282;2022-07-05T05:44:36;1.40;;;1.30;;
12585;SDS011;6358;50.760;0.282;2022-07-05T05:47:02;1.40;;;1.30;;
12585;SDS011;6358;50.760;0.282;2022-07-05T05:49:28;1.33;;;1.23;;
12585;SDS011;6358;50.760;0.282;2022-07-05T05:51:54;1.20;;;1.10;;
12585;SDS011;6358;50.760;0.282;2022-07-05T05:54:20;1.27;;;1.17;;
12585;SDS011;6358;50.760;0.282;2022-07-05T05:56:46;1.25;;;1.15;;
12585;SDS011;6358;50.760;0.282;2022-07-05T05:59:12;1.42;;;1.10;;
12585;SDS011;6358;50.760;0.282;2022-07-05T06:01:38;1.30;;;1.20;;
12585;SDS011;6358;50.760;0.282;2022-07-05T06:04:05;1.90;;;1.40;;
12585;SDS011;6358;50.760;0.282;2022-07-05T06:06:31;1.88;;;1.23;;
12585;SDS011;6358;50.760;0.282;2022-07-05T06:08:57;1.40;;;1.30;;
12585;SDS011;6358;50.760;0.282;2022-07-05T06:11:23;1.35;;;1.17;;
12585;SDS011;6358;50.760;0.282;2022-07-05T06:13:49;1.30;;;1.20;;
12585;SDS011;6358;50.760;0.282;2022-07-05T06:16:15;1.40;;;1.30;;
12585;SDS011;6358;50.760;0.282;2022-07-05T06:18:41;1.50;;;1.40;;
12585;SDS011;6358;50.760;0.282;2022-07-05T06:21:07;2.65;;;1.30;;
12585;SDS011;6358;50.760;0.282;2022-07-05T06:23:33;1.40;;;1.30;;
12585;SDS011;6358;50.760;0.282;2022-07-05T06:25:59;2.40;;;1.25;;
12585;SDS011;6358;50.760;0.282;2022-07-05T06:28:25;1.15;;;1.15;;
12585;SDS011;6358;50.760;0.282;2022-07-05T06:30:52;1.20;;;1.10;;
12585;SDS011;6358;50.760;0.282;2022-07-05T06:33:18;1.88;;;1.30;;
12585;SDS011;6358;50.760;0.282;2022-07-05T06:35:45;1.40;;;1.30;;
12585;SDS011;6358;50.760;0.282;2022-07-05T06:38:11;3.05;;;1.38;;
12585;SDS011;6358;50.760;0.282;2022-07-05T06:40:38;1.63;;;1.38;;
12585;SDS011;6358;50.760;0.282;2022-07-05T06:43:07;1.23;;;1.20;;
12585;SDS011;6358;50.760;0.282;2022-07-05T06:45:34;3.25;;;1.70;;
12585;SDS011;6358;50.760;0.282;2022-07-05T06:48:04;1.70;;;1.25;;
12585;SDS011;6358;50.760;0.282;2022-07-05T06:50:31;1.42;;;1.30;;
12585;SDS011;6358;50.760;0.282;2022-07-05T06:52:57;4.55;;;1.30;;
12585;SDS011;6358;50.760;0.282;2022-07-05T06:55:24;1.30;;;1.20;;
12585;SDS011;6358;50.760;0.282;2022-07-05T06:57:57;1.70;;;1.35;;
12585;SDS011;6358;50.760;0.282;2022-07-05T07:00:24;2.13;;;1.20;;
12585;SDS011;6358;50.760;0.282;2022-07-05T07:02:50;2.50;;;1.40;;
12585;SDS011;6358;50.760;0.282;2022-07-05T07:05:16;1.92;;;1.40;;
12585;SDS011;6358;50.760;0.282;2022-07-05T07:07:42;2.10;;;1.20;;
12585;SDS011;6358;50.760;0.282;2022-07-05T07:10:27;1.67;;;1.48;;
12585;SDS011;6358;50.760;0.282;2022-07-05T07:12:53;1.40;;;1.30;;
12585;SDS011;6358;50.760;0.282;2022-07-05T07:15:19;1.45;;;1.10;;
12585;SDS011;6358;50.760;0.282;2022-07-05T07:17:46;1.45;;;1.35;;
12585;SDS011;6358;50.760;0.282;2022-07-05T07:20:12;1.38;;;1.27;;
12585;SDS011;6358;50.760;0.282;2022-07-05T07:22:39;1.52;;;1.30;;
12585;SDS011;6358;50.760;0.282;2022-07-05T07:25:05;1.77;;;1.42;;
12585;SDS011;6358;50.760;0.282;2022-07-05T07:27:40;1.52;;;1.42;;
12585;SDS011;6358;50.760;0.282;2022-07-05T07:30:07;1.77;;;1.40;;
12585;SDS011;6358;50.760;0.282;2022-07-05T07:32:33;2.80;;;1.40;;
12585;SDS011;6358;50.760;0.282;2022-07-05T07:34:59;1.60;;;1.50;;
12585;SDS011;6358;50.760;0.282;2022-07-05T07:37:25;2.97;;;1.42;;
12585;SDS011;6358;50.760;0.282;2022-07-05T07:39:51;1.45;;;1.30;;
12585;SDS011;6358;50.760;0.282;2022-07-05T07:42:17;1.63;;;1.50;;
12585;SDS011;6358;50.760;0.282;2022-07-05T07:44:43;4.22;;;1.23;;
12585;SDS011;6358;50.760;0.282;2022-07-05T07:47:09;2.72;;;1.25;;
12585;SDS011;6358;50.760;0.282;2022-07-05T07:49:35;3.25;;;1.33;;
12585;SDS011;6358;50.760;0.282;2022-07-05T07:52:02;1.55;;;1.20;;
12585;SDS011;6358;50.760;0.282;2022-07-05T07:54:29;2.75;;;1.30;;
12585;SDS011;6358;50.760;0.282;2022-07-05T07:56:55;1.65;;;1.40;;
12585;SDS011;6358;50.760;0.282;2022-07-05T07:59:21;1.48;;;1.38;;
12585;SDS011;6358;50.760;0.282;2022-07-05T08:01:47;1.45;;;1.35;;
12585;SDS011;6358;50.760;0.282;2022-07-05T08:04:13;1.50;;;1.30;;
12585;SDS011;6358;50.760;0.282;2022-07-05T08:06:40;4.68;;;2.10;;
12585;SDS011;6358;50.760;0.282;2022-07-05T08:09:06;2.53;;;1.63;;
12585;SDS011;6358;50.760;0.282;2022-07-05T08:11:32;1.50;;;1.38;;
12585;SDS011;6358;50.760;0.282;2022-07-05T08:13:58;2.00;;;1.45;;
12585;SDS011;6358;50.760;0.282;2022-07-05T08:16:24;14.00;;;3.92;;
12585;SDS011;6358;50.760;0.282;2022-07-05T08:18:50;3.40;;;1.85;;
12585;SDS011;6358;50.760;0.282;2022-07-05T08:21:35;4.97;;;1.75;;
12585;SDS011;6358;50.760;0.282;2022-07-05T08:24:05;2.33;;;1.40;;
12585;SDS011;6358;50.760;0.282;2022-07-05T08:26:33;2.85;;;1.63;;
12585;SDS011;6358;50.760;0.282;2022-07-05T08:28:59;7.05;;;5.20;;
12585;SDS011;6358;50.760;0.282;2022-07-05T08:31:30;15.30;;;11.30;;
12585;SDS011;6358;50.760;0.282;2022-07-05T08:33:56;25.08;;;22.58;;
12585;SDS011;6358;50.760;0.282;2022-07-05T08:36:22;26.23;;;23.75;;
12585;SDS011;6358;50.760;0.282;2022-07-05T08:38:48;24.38;;;21.85;;
12585;SDS011;6358;50.760;0.282;2022-07-05T08:41:17;21.65;;;19.50;;
12585;SDS011;6358;50.760;0.282;2022-07-05T08:43:44;17.63;;;16.02;;
12585;SDS011;6358;50.760;0.282;2022-07-05T08:46:11;13.93;;;11.32;;
12585;SDS011;6358;50.760;0.282;2022-07-05T08:48:37;10.13;;;9.13;;
12585;SDS011;6358;50.760;0.282;2022-07-05T08:51:13;6.13;;;5.63;;
12585;SDS011;6358;50.760;0.282;2022-07-05T08:53:40;7.30;;;5.43;;
12585;SDS011;6358;50.760;0.282;2022-07-05T08:56:10;7.10;;;4.03;;
12585;SDS011;6358;50.760;0.282;2022-07-05T08:58:37;3.75;;;3.20;;
12585;SDS011;6358;50.760;0.282;2022-07-05T09:01:03;3.35;;;3.05;;
12585;SDS011;6358;50.760;0.282;2022-07-05T09:03:31;3.05;;;2.10;;
12585;SDS011;6358;50.760;0.282;2022-07-05T09:05:59;2.30;;;1.80;;
12585;SDS011;6358;50.760;0.282;2022-07-05T09:08:26;2.58;;;1.80;;
12585;SDS011;6358;50.760;0.282;2022-07-05T09:10:52;2.42;;;1.77;;
12585;SDS011;6358;50.760;0.282;2022-07-05T09:13:19;1.70;;;1.60;;
12585;SDS011;6358;50.760;0.282;2022-07-05T09:15:45;3.72;;;2.00;;
12585;SDS011;6358;50.760;0.282;2022-07-05T09:18:11;2.92;;;1.60;;
12585;SDS011;6358;50.760;0.282;2022-07-05T09:20:37;3.38;;;1.95;;
12585;SDS011;6358;50.760;0.282;2022-07-05T09:23:03;2.65;;;1.73;;
12585;SDS011;6358;50.760;0.282;2022-07-05T09:25:30;2.13;;;1.65;;
12585;SDS011;6358;50.760;0.282;2022-07-05T09:30:23;2.00;;;1.60;;
12585;SDS011;6358;50.760;0.282;2022-07-05T09:35:52;2.42;;;1.95;;
12585;SDS011;6358;50.760;0.282;2022-07-05T09:38:22;3.42;;;1.75;;
12585;SDS011;6358;50.760;0.282;2022-07-05T09:43:19;3.13;;;1.75;;
12585;SDS011;6358;50.760;0.282;2022-07-05T09:45:52;2.30;;;1.48;;
12585;SDS011;6358;50.760;0.282;2022-07-05T09:48:19;2.30;;;1.67;;
12585;SDS011;6358;50.760;0.282;2022-07-05T09:50:45;2.90;;;1.70;;
12585;SDS011;6358;50.760;0.282;2022-07-05T09:53:11;3.58;;;1.65;;
12585;SDS011;6358;50.760;0.282;2022-07-05T09:55:37;2.42;;;1.60;;
12585;SDS011;6358;50.760;0.282;2022-07-05T09:58:05;2.28;;;1.63;;
12585;SDS011;6358;50.760;0.282;2022-07-05T10:00:31;1.90;;;1.70;;
12585;SDS011;6358;50.760;0.282;2022-07-05T10:02:57;3.25;;;1.90;;
12585;SDS011;6358;50.760;0.282;2022-07-05T10:05:28;2.08;;;1.58;;
12585;SDS011;6358;50.760;0.282;2022-07-05T10:07:58;2.97;;;1.40;;
12585;SDS011;6358;50.760;0.282;2022-07-05T10:10:29;3.10;;;1.70;;
12585;SDS011;6358;50.760;0.282;2022-07-05T10:12:56;1.63;;;1.45;;
12585;SDS011;6358;50.760;0.282;2022-07-05T10:15:26;3.08;;;1.70;;
12585;SDS011;6358;50.760;0.282;2022-07-05T10:17:54;3.30;;;1.70;;
12585;SDS011;6358;50.760;0.282;2022-07-05T10:23:07;3.33;;;2.03;;
12585;SDS011;6358;50.760;0.282;2022-07-05T10:25:34;3.30;;;1.60;;
12585;SDS011;6358;50.760;0.282;2022-07-05T10:28:01;2.47;;;1.60;;
12585;SDS011;6358;50.760;0.282;2022-07-05T10:30:28;2.42;;;1.60;;
12585;SDS011;6358;50.760;0.282;2022-07-05T10:32:54;1.77;;;1.38;;
12585;SDS011;6358;50.760;0.282;2022-07-05T10:35:22;1.67;;;1.52;;
12585;SDS011;6358;50.760;0.282;2022-07-05T10:37:48;1.70;;;1.60;;
12585;SDS011;6358;50.760;0.282;2022-07-05T10:40:15;2.20;;;1.90;;
12585;SDS011;6358;50.760;0.282;2022-07-05T10:45:27;1.60;;;1.50;;
12585;SDS011;6358;50.760;0.282;2022-07-05T10:53:16;2.08;;;1.70;;
12585;SDS011;6358;50.760;0.282;2022-07-05T10:56:25;2.97;;;1.70;;
12585;SDS011;6358;50.760;0.282;2022-07-05T10:58:33;2.60;;;1.55;;
12585;SDS011;6358;50.760;0.282;2022-07-05T11:03:55;5.72;;;1.90;;
12585;SDS011;6358;50.760;0.282;2022-07-05T11:06:38;3.35;;;1.70;;
12585;SDS011;6358;50.760;0.282;2022-07-05T11:11:38;7.22;;;2.17;;
12585;SDS011;6358;50.760;0.282;2022-07-05T11:17:32;2.22;;;1.60;;
12585;SDS011;6358;50.760;0.282;2022-07-05T11:19:33;2.05;;;1.48;;
12585;SDS011;6358;50.760;0.282;2022-07-05T11:22:03;1.90;;;1.50;;
12585;SDS011;6358;50.760;0.282;2022-07-05T11:24:30;3.53;;;1.75;;
12585;SDS011;6358;50.760;0.282;2022-07-05T11:26:59;1.75;;;1.58;;
12585;SDS011;6358;50.760;0.282;2022-07-05T11:29:41;1.65;;;1.55;;
12585;SDS011;6358;50.760;0.282;2022-07-05T11:32:08;1.70;;;1.58;;
12585;SDS011;6358;50.760;0.282;2022-07-05T11:34:36;1.90;;;1.70;;
12585;SDS011;6358;50.760;0.282;2022-07-05T11:37:21;2.30;;;1.50;;
12585;SDS011;6358;50.760;0.282;2022-07-05T11:42:31;2.40;;;1.80;;
12585;SDS011;6358;50.760;0.282;2022-07-05T11:44:58;2.33;;;1.67;;
12585;SDS011;6358;50.760;0.282;2022-07-05T11:47:25;1.92;;;1.60;;
12585;SDS011;6358;50.760;0.282;2022-07-05T11:49:52;1.70;;;1.60;;
12585;SDS011;6358;50.760;0.282;2022-07-05T11:52:24;1.60;;;1.50;;
12585;SDS011;6358;50.760;0.282;2022-07-05T11:54:50;1.65;;;1.55;;
12585;SDS011;6358;50.760;0.282;2022-07-05T11:57:18;2.20;;;1.60;;
12585;SDS011;6358;50.760;0.282;2022-07-05T11:59:44;1.65;;;1.40;;
12585;SDS011;6358;50.760;0.282;2022-07-05T12:02:10;2.50;;;1.33;;
12585;SDS011;6358;50.760;0.282;2022-07-05T12:04:37;3.35;;;1.52;;
12585;SDS011;6358;50.760;0.282;2022-07-05T12:07:03;1.98;;;1.42;;
12585;SDS011;6358;50.760;0.282;2022-07-05T12:09:31;1.52;;;1.30;;
12585;SDS011;6358;50.760;0.282;2022-07-05T12:12:21;2.17;;;1.30;;
12585;SDS011;6358;50.760;0.282;2022-07-05T12:15:06;1.70;;;1.40;;
12585;SDS011;6358;50.760;0.282;2022-07-05T12:17:35;1.60;;;1.13;;
12585;SDS011;6358;50.760;0.282;2022-07-05T12:20:02;1.55;;;1.30;;
12585;SDS011;6358;50.760;0.282;2022-07-05T12:22:32;2.42;;;1.30;;
12585;SDS011;6358;50.760;0.282;2022-07-05T12:24:59;2.30;;;1.35;;
12585;SDS011;6358;50.760;0.282;2022-07-05T12:27:29;2.08;;;1.30;;
12585;SDS011;6358;50.760;0.282;2022-07-05T12:29:56;2.88;;;1.60;;
12585;SDS011;6358;50.760;0.282;2022-07-05T12:32:22;2.10;;;1.42;;
12585;SDS011;6358;50.760;0.282;2022-07-05T12:34:48;1.80;;;1.10;;
12585;SDS011;6358;50.760;0.282;2022-07-05T12:37:21;1.48;;;1.20;;
12585;SDS011;6358;50.760;0.282;2022-07-05T12:39:49;1.50;;;1.30;;
12585;SDS011;6358;50.760;0.282;2022-07-05T12:42:37;1.83;;;1.50;;
12585;SDS011;6358;50.760;0.282;2022-07-05T12:47:36;1.48;;;1.15;;
12585;SDS011;6358;50.760;0.282;2022-07-05T12:50:02;1.58;;;1.42;;
12585;SDS011;6358;50.760;0.282;2022-07-05T12:52:28;2.20;;;1.42;;
12585;SDS011;6358;50.760;0.282;2022-07-05T12:55:10;1.08;;;1.00;;
12585;SDS011;6358;50.760;0.282;2022-07-05T12:57:56;1.30;;;1.00;;
12585;SDS011;6358;50.760;0.282;2022-07-05T13:00:28;1.33;;;1.23;;
12585;SDS011;6358;50.760;0.282;2022-07-05T13:02:55;2.50;;;1.20;;
12585;SDS011;6358;50.760;0.282;2022-07-05T13:05:22;2.67;;;1.30;;
12585;SDS011;6358;50.760;0.282;2022-07-05T13:07:49;2.47;;;1.30;;
12585;SDS011;6358;50.760;0.282;2022-07-05T13:10:23;1.27;;;1.17;;
12585;SDS011;6358;50.760;0.282;2022-07-05T13:12:50;1.95;;;1.20;;
12585;SDS011;6358;50.760;0.282;2022-07-05T13:15:16;2.63;;;1.35;;
12585;SDS011;6358;50.760;0.282;2022-07-05T13:17:43;1.35;;;1.20;;
12585;SDS011;6358;50.760;0.282;2022-07-05T13:20:09;4.20;;;1.30;;
12585;SDS011;6358;50.760;0.282;2022-07-05T13:22:35;1.95;;;1.33;;
12585;SDS011;6358;50.760;0.282;2022-07-05T13:25:02;2.42;;;1.30;;
12585;SDS011;6358;50.760;0.282;2022-07-05T13:27:29;6.35;;;1.35;;
12585;SDS011;6358;50.760;0.282;2022-07-05T13:29:55;4.30;;;1.20;;
12585;SDS011;6358;50.760;0.282;2022-07-05T13:32:21;4.25;;;1.70;;
12585;SDS011;6358;50.760;0.282;2022-07-05T13:34:48;2.10;;;1.40;;
12585;SDS011;6358;50.760;0.282;2022-07-05T13:37:15;6.85;;;2.40;;
12585;SDS011;6358;50.760;0.282;2022-07-05T13:39:41;4.88;;;2.20;;
12585;SDS011;6358;50.760;0.282;2022-07-05T13:42:07;4.18;;;1.70;;
12585;SDS011;6358;50.760;0.282;2022-07-05T13:44:34;2.15;;;1.35;;
12585;SDS011;6358;50.760;0.282;2022-07-05T13:47:00;5.07;;;1.85;;
12585;SDS011;6358;50.760;0.282;2022-07-05T13:49:26;3.03;;;1.73;;
12585;SDS011;6358;50.760;0.282;2022-07-05T13:51:52;5.97;;;1.77;;
12585;SDS011;6358;50.760;0.282;2022-07-05T13:54:18;2.55;;;1.27;;
12585;SDS011;6358;50.760;0.282;2022-07-05T13:56:44;6.13;;;1.60;;
12585;SDS011;6358;50.760;0.282;2022-07-05T13:59:10;3.65;;;1.50;;
12585;SDS011;6358;50.760;0.282;2022-07-05T14:01:36;5.25;;;1.40;;
12585;SDS011;6358;50.760;0.282;2022-07-05T14:04:04;5.05;;;1.60;;
12585;SDS011;6358;50.760;0.282;2022-07-05T14:06:30;6.03;;;1.60;;
12585;SDS011;6358;50.760;0.282;2022-07-05T14:08:57;3.50;;;1.60;;
12585;SDS011;6358;50.760;0.282;2022-07-05T14:11:23;4.18;;;1.30;;
12585;SDS011;6358;50.760;0.282;2022-07-05T14:13:51;1.50;;;1.13;;
12585;SDS011;6358;50.760;0.282;2022-07-05T14:16:17;2.80;;;1.55;;
12585;SDS011;6358;50.760;0.282;2022-07-05T14:18:44;3.15;;;1.30;;
12585;SDS011;6358;50.760;0.282;2022-07-05T14:21:10;1.80;;;1.40;;
12585;SDS011;6358;50.760;0.282;2022-07-05T14:23:40;1.85;;;1.27;;
12585;SDS011;6358;50.760;0.282;2022-07-05T14:26:07;4.22;;;1.27;;
12585;SDS011;6358;50.760;0.282;2022-07-05T14:28:33;1.67;;;1.15;;
12585;SDS011;6358;50.760;0.282;2022-07-05T14:31:00;1.73;;;1.20;;
12585;SDS011;6358;50.760;0.282;2022-07-05T14:33:26;1.25;;;1.15;;
12585;SDS011;6358;50.760;0.282;2022-07-05T14:35:52;1.38;;;1.20;;
12585;SDS011;6358;50.760;0.282;2022-07-05T14:38:18;2.33;;;1.30;;
12585;SDS011;6358;50.760;0.282;2022-07-05T14:40:44;2.05;;;1.13;;
12585;SDS011;6358;50.760;0.282;2022-07-05T14:43:10;1.52;;;1.40;;
12585;SDS011;6358;50.760;0.282;2022-07-05T14:45:36;2.30;;;1.10;;
12585;SDS011;6358;50.760;0.282;2022-07-05T14:48:03;2.50;;;1.25;;
12585;SDS011;6358;50.760;0.282;2022-07-05T14:50:29;2.08;;;1.30;;
12585;SDS011;6358;50.760;0.282;2022-07-05T14:52:56;1.13;;;1.02;;
12585;SDS011;6358;50.760;0.282;2022-07-05T14:55:22;1.52;;;1.08;;
12585;SDS011;6358;50.760;0.282;2022-07-05T14:57:49;3.22;;;1.48;;
12585;SDS011;6358;50.760;0.282;2022-07-05T15:00:15;1.23;;;1.10;;
12585;SDS011;6358;50.760;0.282;2022-07-05T15:02:42;3.33;;;1.27;;
12585;SDS011;6358;50.760;0.282;2022-07-05T15:05:08;3.03;;;1.40;;
12585;SDS011;6358;50.760;0.282;2022-07-05T15:07:36;4.38;;;1.40;;
12585;SDS011;6358;50.760;0.282;2022-07-05T15:10:02;1.73;;;1.13;;
12585;SDS011;6358;50.760;0.282;2022-07-05T15:12:28;1.80;;;1.15;;
12585;SDS011;6358;50.760;0.282;2022-07-05T15:14:55;2.78;;;1.15;;
12585;SDS011;6358;50.760;0.282;2022-07-05T15:17:21;1.92;;;1.05;;
12585;SDS011;6358;50.760;0.282;2022-07-05T15:19:47;2.40;;;1.30;;
12585;SDS011;6358;50.760;0.282;2022-07-05T15:22:13;1.73;;;1.10;;
12585;SDS011;6358;50.760;0.282;2022-07-05T15:24:41;1.42;;;1.10;;
12585;SDS011;6358;50.760;0.282;2022-07-05T15:27:07;2.75;;;1.10;;
12585;SDS011;6358;50.760;0.282;2022-07-05T15:29:35;2.88;;;1.38;;
12585;SDS011;6358;50.760;0.282;2022-07-05T15:32:01;1.77;;;1.20;;
12585;SDS011;6358;50.760;0.282;2022-07-05T15:34:27;2.38;;;1.30;;
12585;SDS011;6358;50.760;0.282;2022-07-05T15:36:53;2.33;;;1.20;;
12585;SDS011;6358;50.760;0.282;2022-07-05T15:39:19;2.70;;;1.15;;